x

Tanner Bank - 121nm West Of San Diego, Ca (46047) Wave Buoy

9:50 - Sat 28th Feb 2015 All times are PST. -8 hours from GMT.

  • Sig Wave height 6.2ft
  • Swell Direction
  • Peak Period 8s
  • Average Period 6s
  • Wind
    13mph, 16mph gusts
  • Sea Temp 62°f
  • Luft Temp 58°f
  • Sea Pressure 1012.9mb
  • Tanner Bank - 121nm West Of San Diego, Ca
  • Tanner Bank - 121nm West Of San Diego, Ca

More Historic Weather Station data

Upgrade to MSW Pro to gain access to the past 30 days of data for over 8000 Wavebouys and Weather Stations around the globe.

Join Pro

Comparision Forecast

View Surf forecast
   
Sa 02/28 9:50 6ft 8s 6s 13 16 mph 1012.9mb 62f 58f
8:50 6.5ft 8s 6s 13 20 mph 1012.6mb 62f 58f
7:50 7ft 8s 6s 16 18 mph 1011.7mb 62f 59f
6:50 7ft 8s 6s 16 20 mph 1011mb 62f 59f
5:50 7.5ft 8s 6s 18 20 mph 1010.5mb 62f 59f
4:50 7.5ft 9s 6s 20 25 mph 1009.9mb 62f 60f
3:50 8ft 9s 6s 22 27 mph 1009.5mb 62f 60f
2:50 8ft 9s 6s 22 27 mph 1009.8mb 62f 60f
1:50 8ft 9s 6s 22 25 mph 1010.2mb 61f 60f
12:50 8ft 9s 6s 22 29 mph 1010.2mb 61f 59f
Fr 02/27 11:50 9ft 9s 6s 18 22 mph 1010.6mb 61f 60f
10:50 9ft 8s 6s 18 22 mph 1010.8mb 61f 60f
9:50 10ft 10s 7s 20 27 mph 1010.8mb 61f 60f
8:50  -   -   -  20 22 mph 1010.7mb 61f 60f
7:50 10ft 10s 7s 20 25 mph 1010.3mb 61f 60f
6:50 10.5ft 8s 7s 22 27 mph 1009.9mb 61f 61f
5:50 11ft 10s 7s 22 27 mph 1009.7mb 62f 60f
4:50 11ft 8s 7s 27 34 mph 1009.5mb 62f 60f
3:50 12ft 10s 7s 25 31 mph 1010mb 62f 60f
2:50 12ft 9s 7s 27 31 mph 1010.2mb 62f 60f
1:50 12ft 10s 7s 27 31 mph 1010.5mb 62f 60f
12:50 10.5ft 11s 6s 27 31 mph 1011.2mb 62f 60f
11:50  -   -   -  29 34 mph 1012mb 62f 60f
10:50 12ft 11s 7s 27 34 mph 1012.2mb 62f 60f
9:50 12.5ft 11s 7s 27 34 mph 1012mb 62f 60f
8:50 13ft 10s 7s 27 31 mph 1011.5mb 62f 60f
7:50 11ft 10s 7s 27 34 mph 1010.7mb 62f 60f
6:50  -   -   -  25
mph
1010.6mb 62f 60f
5:50 10.5ft 10s 7s 22 29 mph 1010.4mb 62f 60f
4:50 12ft 10s 7s 20 25 mph 1009.7mb 62f 60f
3:50 11ft 8s 7s 27 31 mph 1009.8mb 62f 60f
2:50 10ft 11s 7s 20 25 mph 1010.3mb 62f 60f
1:50 9ft 8s 6s 25 27 mph 1010.4mb 62f 60f
12:50 9ft 10s 6s 22 27 mph 1010.7mb 62f 60f
Do 02/26 10:50 9ft 10s 7s 22 25 mph 1011.5mb 62f 61f
9:50 9ft 9s 6s 22 25 mph 1011.7mb 62f 61f
8:50 9ft 9s 6s 20 25 mph 1011.8mb 62f 61f
7:50 8ft 9s 6s 20 27 mph 1011.3mb 62f 61f
6:50 8.5ft 9s 6s 18 22 mph 1011.2mb 62f 60f
5:50 9ft 9s 6s 20 22 mph 1011mb 62f 60f
4:50  -   -   -  20 22 mph 1011.2mb 62f 60f
3:50 8.5ft 9s 6s 20 25 mph 1011.7mb 62f 60f
2:50  -   -   -  20 27 mph 1012mb 62f 60f
1:50 9ft 8s 6s 22 27 mph 1012.3mb 62f 60f
12:50 9ft 9s 6s 20 25 mph 1013.1mb 62f 60f
11:50 8ft 9s 6s 18 20 mph 1014.2mb 62f 60f
10:50 8ft 9s 6s 25 29 mph 1014.4mb 62f 60f
9:50  -   -   -  25 29 mph 1014.7mb 62f 60f
8:50 8.5ft 8s 6s 22 27 mph 1014.9mb 62f 60f
7:50 9ft 8s 6s 20 25 mph 1015mb 62f 60f
6:50  -   -   -  25 31 mph 1014.8mb 62f 60f
5:50 8.5ft 8s 6s 22 27 mph 1014.2mb 62f 60f
4:50  -   -   -  20 22 mph 1014.3mb 62f 60f
3:50 8ft 8s 7s 18 22 mph 1014.4mb 62f 60f
2:50 7ft 8s 6s 18 20 mph 1015mb 62f 60f
1:50 7ft 8s 6s 18 20 mph 1015.9mb 62f 59f
12:50  -   -   -  20 25 mph 1016.5mb 62f 60f
Mi 02/25 11:50 7.5ft 8s 6s 20 22 mph 1017mb 62f 60f
10:50 6ft 8s 6s 18 25 mph 1017.1mb 62f 60f
9:50 6.5ft 12s 6s 20 25 mph 1017.5mb 62f 60f
8:50 7ft 8s 6s 18 20 mph 1017.7mb 62f 60f
7:50 7ft 7s 6s 18 20 mph 1017.3mb 62f 59f
6:50 7ft 8s 6s 18 22 mph 1017.4mb 62f 60f
5:50 7ft 12s 6s 20 22 mph 1017.5mb 62f 60f
4:50 7ft 12s 6s 20 25 mph 1017.9mb 62f 60f
3:50 7ft 12s 6s 18 22 mph 1018mb 62f 60f
2:50 7.5ft 13s 6s 20 25 mph 1018.6mb 62f 60f
1:50 7ft 13s 6s 22 25 mph 1019mb 62f 60f
12:50 8ft 7s 6s 20 25 mph 1019.9mb 62f 60f
11:50 7ft 7s 6s 22 27 mph 1020.5mb 62f 60f
10:50 7ft 13s 6s 22 25 mph 1021.2mb 62f 60f
9:50 7.5ft 14s 6s 25 29 mph 1021.6mb 62f 61f
8:50 7ft 7s 6s 20 27 mph 1022mb 62f 60f
7:50 7ft 14s 6s 22 27 mph 1021.8mb 62f 60f
6:50 7ft 13s 6s 18 22 mph 1021.7mb 62f 60f
5:50 7ft 13s 6s 20 25 mph 1021.6mb 62f 60f
4:50 6ft 14s 6s 18 22 mph 1021.8mb 62f 61f
3:50 6ft 14s 6s 18 22 mph 1022.3mb 62f 61f
2:50 6ft 13s 6s 18 22 mph 1022.6mb 62f 61f
1:50 6ft 13s 6s 16 18 mph 1023.4mb 62f 61f
12:50 6.5ft 13s 6s 16 18 mph 1023.8mb 62f 60f
Di 02/24 11:50 7ft 14s 6s 18 22 mph 1023.9mb 62f 60f
10:50 6ft 14s 6s 20 22 mph 1024.2mb 62f 60f
9:50 6.5ft 14s 6s 22 27 mph 1024mb 62f 60f
8:50 6ft 14s 6s 20 22 mph 1024mb 62f 61f
7:50 6.5ft 13s 6s 20 25 mph 1023.4mb 62f 61f
6:50  -   -   -  20 27 mph 1023.1mb 62f 61f